ADDS METAR Data INFO
IDs: Format: Raw Decoded Include TAF

Data at: 0349 UTC 18 Oct 2017

KHEF 180256Z AUTO 00000KT 10SM CLR 05/04 A3035 RMK AO2 SLP291 6//// T00500039 53014 PNO $
KHEF 180156Z 00000KT 10SM CLR 06/05 A3034 RMK AO2 SLP285 T00560050 PNO $
KHEF 180056Z 00000KT 10SM CLR 07/04 A3032 RMK AO2 SLP281 T00720044 PNO $
KHEF 172356Z 00000KT 10SM CLR 08/04 A3031 RMK AO2 SLP277 6//// T00830044 10178 20072 53004 PNO $
KHEF 172256Z 00000KT 10SM CLR 11/06 A3030 RMK AO2 SLP274 T01060061 PNO $
KHEF 172156Z 00000KT 10SM CLR 16/02 A3030 RMK AO2 SLP274 T01560017 PNO $
KHEF 172056Z 00000KT 10SM CLR 17/M01 A3030 RMK AO2 SLP273 6//// T01721006 56011 PNO $
KHEF 171956Z 31003KT 10SM CLR 17/M01 A3031 RMK AO2 SLP276 T01671006 PNO $
KHEF 171856Z VRB04KT 10SM CLR 17/M01 A3032 RMK AO2 SLP278 T01671011 PNO $
KHEF 171756Z 33004KT 10SM CLR 16/00 A3033 RMK AO2 SLP284 6//// T01610000 10167 20028 58024 PNO $
KHEF 171656Z 35006KT 10SM CLR 16/01 A3036 RMK AO2 SLP294 T01560011 PNO $
KHEF 171556Z 36006KT 10SM CLR 14/01 A3039 RMK AO2 SLP305 T01390006 PNO $
KHEF 171456Z 01007KT 10SM CLR 13/02 A3040 RMK AO2 SLP308 6//// T01280022 50009 PNO $
KHEF 171356Z 01004KT 10SM CLR 11/04 A3041 RMK AO2 SLP310 T01110039 PNO $
KHEF 171256Z 00000KT 10SM CLR 06/04 A3040 RMK AO2 SLP308 T00560039 PNO $
KHEF 171156Z 00000KT 10SM CLR 03/02 A3038 RMK AO2 SLP299 6//// 7//// T00280017 10067 20011 51018 PNO $
KHEF 171056Z 00000KT 10SM CLR 02/02 A3036 RMK AO2 SLP293 T00170017 PNO $
KHEF 170956Z AUTO 00000KT 10SM CLR 03/02 A3034 RMK AO2 SLP287 T00280017 PNO $
KHEF 170856Z AUTO 31003KT 10SM CLR 03/02 A3032 RMK AO2 SLP281 6//// T00330022 53013 PNO $
KHEF 170756Z AUTO 00000KT 10SM CLR 03/03 A3030 RMK AO2 SLP272 T00330028 PNO $
KHEF 170656Z AUTO 33004KT 10SM CLR 05/03 A3029 RMK AO2 SLP269 T00500028 PNO $
KHEF 170556Z AUTO 00000KT 10SM CLR 06/02 A3028 RMK AO2 SLP267 6//// T00560022 10117 20050 51007 PNO $
KHEF 170456Z AUTO 00000KT 10SM CLR 06/04 A3028 RMK AO2 SLP266 T00560039 PNO $
KHEF 170356Z AUTO 36005KT 10SM CLR 08/03 A3028 RMK AO2 SLP265 T00830028 402220061 PNO $
KHEF 170256Z AUTO 33006KT 10SM CLR 07/04 A3026 RMK AO2 SLP260 6//// T00670039 51023 PNO $
KHEF 170156Z 34006KT 10SM CLR 09/03 A3025 RMK AO2 SLP255 T00940028 PNO $
KHEF 170056Z 33004KT 10SM CLR 11/03 A3022 RMK AO2 SLP245 T01060028 PNO $
KHEF 162356Z 33005KT 10SM CLR 11/03 A3020 RMK AO2 SLP236 6//// T01110028 10189 20111 53022 PNO $
KHEF 162256Z 35007KT 10SM CLR 14/02 A3017 RMK AO2 SLP227 T01440017 PNO $
KHEF 162156Z 36013KT 10SM CLR 17/02 A3014 RMK AO2 SLP218 T01670017 PNO $
KHEF 162056Z 33015G22KT 10SM CLR 18/02 A3013 RMK AO2 SLP213 6//// T01780017 53005 PNO $
KHEF 161956Z 34014G20KT 10SM CLR 19/03 A3012 RMK AO2 SLP210 T01890033 PNO $
KHEF 161856Z 32018G22KT 10SM CLR 18/04 A3011 RMK AO2 SLP207 T01780039 PNO $
KHEF 161756Z 36020G27KT 10SM SCT055 17/04 A3011 RMK AO2 PK WND 35027/1756 SLP207 6//// T01720044 10183 20150 58001 PNO $
KHEF 161656Z 34013G16KT 10SM FEW043 17/08 A3012 RMK AO2 SLP208 T01720078 PNO $
KHEF 161556Z 35017G25KT 10SM CLR 17/08 A3012 RMK AO2 SLP208 T01670078 PNO $